sensor_id;sensor_type;location;lat;lon;timestamp;P1;durP1;ratioP1;P2;durP2;ratioP2
58091;SDS011;43896;48.178;11.578;2024-02-14T00:01:22;6.63;;;3.00;;
58091;SDS011;43896;48.178;11.578;2024-02-14T00:03:47;6.60;;;2.40;;
58091;SDS011;43896;48.178;11.578;2024-02-14T00:06:13;6.00;;;2.40;;
58091;SDS011;43896;48.178;11.578;2024-02-14T00:08:38;6.43;;;2.80;;
58091;SDS011;43896;48.178;11.578;2024-02-14T00:11:04;5.72;;;2.42;;
58091;SDS011;43896;48.178;11.578;2024-02-14T00:13:29;4.63;;;2.00;;
58091;SDS011;43896;48.178;11.578;2024-02-14T00:15:55;4.70;;;1.98;;
58091;SDS011;43896;48.178;11.578;2024-02-14T00:18:21;5.32;;;2.17;;
58091;SDS011;43896;48.178;11.578;2024-02-14T00:20:47;6.10;;;2.30;;
58091;SDS011;43896;48.178;11.578;2024-02-14T00:23:13;5.13;;;2.00;;
58091;SDS011;43896;48.178;11.578;2024-02-14T00:25:38;5.60;;;2.15;;
58091;SDS011;43896;48.178;11.578;2024-02-14T00:28:04;4.90;;;2.20;;
58091;SDS011;43896;48.178;11.578;2024-02-14T00:30:30;4.55;;;2.10;;
58091;SDS011;43896;48.178;11.578;2024-02-14T00:32:56;5.32;;;2.30;;
58091;SDS011;43896;48.178;11.578;2024-02-14T00:35:21;5.40;;;2.55;;
58091;SDS011;43896;48.178;11.578;2024-02-14T00:37:47;4.97;;;1.58;;
58091;SDS011;43896;48.178;11.578;2024-02-14T00:40:13;4.50;;;2.00;;
58091;SDS011;43896;48.178;11.578;2024-02-14T00:42:38;5.07;;;2.00;;
58091;SDS011;43896;48.178;11.578;2024-02-14T00:45:04;4.40;;;1.90;;
58091;SDS011;43896;48.178;11.578;2024-02-14T00:49:59;5.55;;;1.73;;
58091;SDS011;43896;48.178;11.578;2024-02-14T00:52:24;5.00;;;1.90;;
58091;SDS011;43896;48.178;11.578;2024-02-14T00:54:50;4.03;;;1.60;;
58091;SDS011;43896;48.178;11.578;2024-02-14T00:57:15;3.95;;;1.60;;
58091;SDS011;43896;48.178;11.578;2024-02-14T00:59:41;3.92;;;1.50;;
58091;SDS011;43896;48.178;11.578;2024-02-14T01:02:07;4.38;;;1.50;;
58091;SDS011;43896;48.178;11.578;2024-02-14T01:04:32;3.38;;;1.40;;
58091;SDS011;43896;48.178;11.578;2024-02-14T01:06:57;4.05;;;1.85;;
58091;SDS011;43896;48.178;11.578;2024-02-14T01:09:23;5.00;;;1.60;;
58091;SDS011;43896;48.178;11.578;2024-02-14T01:11:48;3.50;;;1.30;;
58091;SDS011;43896;48.178;11.578;2024-02-14T01:14:14;4.95;;;1.40;;
58091;SDS011;43896;48.178;11.578;2024-02-14T01:16:43;3.13;;;1.40;;
58091;SDS011;43896;48.178;11.578;2024-02-14T01:19:09;5.55;;;1.40;;
58091;SDS011;43896;48.178;11.578;2024-02-14T01:21:35;4.53;;;1.35;;
58091;SDS011;43896;48.178;11.578;2024-02-14T01:24:00;3.00;;;1.20;;
58091;SDS011;43896;48.178;11.578;2024-02-14T01:26:26;4.05;;;1.20;;
58091;SDS011;43896;48.178;11.578;2024-02-14T01:28:51;3.25;;;1.23;;
58091;SDS011;43896;48.178;11.578;2024-02-14T01:31:16;4.10;;;1.40;;
58091;SDS011;43896;48.178;11.578;2024-02-14T01:33:42;3.22;;;1.20;;
58091;SDS011;43896;48.178;11.578;2024-02-14T01:36:08;5.40;;;1.25;;
58091;SDS011;43896;48.178;11.578;2024-02-14T01:38:34;3.10;;;1.40;;
58091;SDS011;43896;48.178;11.578;2024-02-14T01:41:01;3.63;;;1.27;;
58091;SDS011;43896;48.178;11.578;2024-02-14T01:43:27;3.05;;;1.30;;
58091;SDS011;43896;48.178;11.578;2024-02-14T01:45:53;3.13;;;1.17;;
58091;SDS011;43896;48.178;11.578;2024-02-14T01:48:18;3.35;;;1.30;;
58091;SDS011;43896;48.178;11.578;2024-02-14T01:50:45;4.10;;;1.33;;
58091;SDS011;43896;48.178;11.578;2024-02-14T01:53:11;3.63;;;1.30;;
58091;SDS011;43896;48.178;11.578;2024-02-14T01:55:37;4.60;;;1.60;;
58091;SDS011;43896;48.178;11.578;2024-02-14T01:58:03;3.35;;;1.30;;
58091;SDS011;43896;48.178;11.578;2024-02-14T02:00:29;4.45;;;1.30;;
58091;SDS011;43896;48.178;11.578;2024-02-14T02:02:56;3.78;;;1.50;;
58091;SDS011;43896;48.178;11.578;2024-02-14T02:05:22;4.03;;;1.55;;
58091;SDS011;43896;48.178;11.578;2024-02-14T02:07:48;5.80;;;1.30;;
58091;SDS011;43896;48.178;11.578;2024-02-14T02:10:14;5.80;;;1.45;;
58091;SDS011;43896;48.178;11.578;2024-02-14T02:12:40;4.22;;;1.52;;
58091;SDS011;43896;48.178;11.578;2024-02-14T02:15:06;3.45;;;1.40;;
58091;SDS011;43896;48.178;11.578;2024-02-14T02:17:32;4.00;;;1.55;;
58091;SDS011;43896;48.178;11.578;2024-02-14T02:19:59;3.85;;;1.60;;
58091;SDS011;43896;48.178;11.578;2024-02-14T02:22:25;3.50;;;1.40;;
58091;SDS011;43896;48.178;11.578;2024-02-14T02:24:51;3.40;;;1.23;;
58091;SDS011;43896;48.178;11.578;2024-02-14T02:27:16;3.28;;;1.20;;
58091;SDS011;43896;48.178;11.578;2024-02-14T02:29:41;4.43;;;1.40;;
58091;SDS011;43896;48.178;11.578;2024-02-14T02:32:07;3.45;;;1.38;;
58091;SDS011;43896;48.178;11.578;2024-02-14T02:34:34;3.75;;;1.50;;
58091;SDS011;43896;48.178;11.578;2024-02-14T02:37:01;4.53;;;1.60;;
58091;SDS011;43896;48.178;11.578;2024-02-14T02:39:26;4.15;;;1.30;;
58091;SDS011;43896;48.178;11.578;2024-02-14T02:41:52;4.18;;;1.20;;
58091;SDS011;43896;48.178;11.578;2024-02-14T02:44:20;4.10;;;1.40;;
58091;SDS011;43896;48.178;11.578;2024-02-14T02:46:46;3.45;;;1.27;;
58091;SDS011;43896;48.178;11.578;2024-02-14T02:49:11;3.08;;;1.30;;
58091;SDS011;43896;48.178;11.578;2024-02-14T02:51:38;3.00;;;1.05;;
58091;SDS011;43896;48.178;11.578;2024-02-14T02:54:04;2.53;;;1.10;;
58091;SDS011;43896;48.178;11.578;2024-02-14T02:56:29;3.03;;;1.13;;
58091;SDS011;43896;48.178;11.578;2024-02-14T02:58:55;2.92;;;0.95;;
58091;SDS011;43896;48.178;11.578;2024-02-14T03:01:20;3.60;;;1.17;;
58091;SDS011;43896;48.178;11.578;2024-02-14T03:03:49;2.80;;;1.00;;
58091;SDS011;43896;48.178;11.578;2024-02-14T03:06:14;2.53;;;1.00;;
58091;SDS011;43896;48.178;11.578;2024-02-14T03:08:39;3.85;;;1.00;;
58091;SDS011;43896;48.178;11.578;2024-02-14T03:11:05;3.03;;;0.90;;
58091;SDS011;43896;48.178;11.578;2024-02-14T03:13:31;2.65;;;1.00;;
58091;SDS011;43896;48.178;11.578;2024-02-14T03:15:56;4.30;;;1.23;;
58091;SDS011;43896;48.178;11.578;2024-02-14T03:18:23;2.50;;;1.10;;
58091;SDS011;43896;48.178;11.578;2024-02-14T03:20:49;2.80;;;1.08;;
58091;SDS011;43896;48.178;11.578;2024-02-14T03:23:15;3.38;;;1.17;;
58091;SDS011;43896;48.178;11.578;2024-02-14T03:25:41;3.10;;;1.02;;
58091;SDS011;43896;48.178;11.578;2024-02-14T03:28:07;2.92;;;1.23;;
58091;SDS011;43896;48.178;11.578;2024-02-14T03:30:34;4.20;;;1.40;;
58091;SDS011;43896;48.178;11.578;2024-02-14T03:33:00;2.25;;;0.90;;
58091;SDS011;43896;48.178;11.578;2024-02-14T03:35:25;4.18;;;1.35;;
58091;SDS011;43896;48.178;11.578;2024-02-14T03:37:52;2.83;;;1.00;;
58091;SDS011;43896;48.178;11.578;2024-02-14T03:40:18;2.95;;;1.30;;
58091;SDS011;43896;48.178;11.578;2024-02-14T03:42:45;3.85;;;1.10;;
58091;SDS011;43896;48.178;11.578;2024-02-14T03:45:11;3.00;;;1.10;;
58091;SDS011;43896;48.178;11.578;2024-02-14T03:47:36;2.20;;;1.02;;
58091;SDS011;43896;48.178;11.578;2024-02-14T03:50:04;4.05;;;1.30;;
58091;SDS011;43896;48.178;11.578;2024-02-14T03:52:30;3.15;;;1.30;;
58091;SDS011;43896;48.178;11.578;2024-02-14T03:54:59;2.15;;;1.02;;
58091;SDS011;43896;48.178;11.578;2024-02-14T03:57:25;3.20;;;1.20;;
58091;SDS011;43896;48.178;11.578;2024-02-14T03:59:53;3.67;;;1.27;;
58091;SDS011;43896;48.178;11.578;2024-02-14T04:02:22;2.80;;;1.13;;
58091;SDS011;43896;48.178;11.578;2024-02-14T04:04:51;2.88;;;1.10;;
58091;SDS011;43896;48.178;11.578;2024-02-14T04:07:16;2.47;;;1.00;;
58091;SDS011;43896;48.178;11.578;2024-02-14T04:09:41;3.70;;;1.30;;
58091;SDS011;43896;48.178;11.578;2024-02-14T04:12:07;3.13;;;1.05;;
58091;SDS011;43896;48.178;11.578;2024-02-14T04:14:33;2.65;;;1.10;;
58091;SDS011;43896;48.178;11.578;2024-02-14T04:16:59;2.35;;;1.10;;
58091;SDS011;43896;48.178;11.578;2024-02-14T04:19:25;2.47;;;1.10;;
58091;SDS011;43896;48.178;11.578;2024-02-14T04:21:50;3.55;;;1.00;;
58091;SDS011;43896;48.178;11.578;2024-02-14T04:24:16;3.03;;;1.00;;
58091;SDS011;43896;48.178;11.578;2024-02-14T04:26:41;2.78;;;1.20;;
58091;SDS011;43896;48.178;11.578;2024-02-14T04:29:07;3.38;;;1.10;;
58091;SDS011;43896;48.178;11.578;2024-02-14T04:31:33;5.13;;;1.15;;
58091;SDS011;43896;48.178;11.578;2024-02-14T04:34:00;3.13;;;1.00;;
58091;SDS011;43896;48.178;11.578;2024-02-14T04:36:25;3.50;;;1.10;;
58091;SDS011;43896;48.178;11.578;2024-02-14T04:38:51;3.42;;;1.30;;
58091;SDS011;43896;48.178;11.578;2024-02-14T04:41:16;4.82;;;1.50;;
58091;SDS011;43896;48.178;11.578;2024-02-14T04:43:42;3.22;;;1.50;;
58091;SDS011;43896;48.178;11.578;2024-02-14T04:46:08;2.88;;;1.10;;
58091;SDS011;43896;48.178;11.578;2024-02-14T04:48:36;3.08;;;1.20;;
58091;SDS011;43896;48.178;11.578;2024-02-14T04:51:02;3.05;;;1.30;;
58091;SDS011;43896;48.178;11.578;2024-02-14T04:53:29;3.35;;;1.20;;
58091;SDS011;43896;48.178;11.578;2024-02-14T04:55:55;3.20;;;1.30;;
58091;SDS011;43896;48.178;11.578;2024-02-14T04:58:20;4.10;;;1.20;;
58091;SDS011;43896;48.178;11.578;2024-02-14T05:00:46;5.32;;;1.20;;
58091;SDS011;43896;48.178;11.578;2024-02-14T05:03:11;4.85;;;1.20;;
58091;SDS011;43896;48.178;11.578;2024-02-14T05:05:37;5.50;;;1.17;;
58091;SDS011;43896;48.178;11.578;2024-02-14T05:08:03;2.92;;;1.20;;
58091;SDS011;43896;48.178;11.578;2024-02-14T05:10:29;3.30;;;0.90;;
58091;SDS011;43896;48.178;11.578;2024-02-14T05:12:54;4.00;;;1.42;;
58091;SDS011;43896;48.178;11.578;2024-02-14T05:15:20;4.53;;;1.10;;
58091;SDS011;43896;48.178;11.578;2024-02-14T05:17:45;3.22;;;1.35;;
58091;SDS011;43896;48.178;11.578;2024-02-14T05:20:11;3.88;;;1.20;;
58091;SDS011;43896;48.178;11.578;2024-02-14T05:22:37;3.70;;;1.58;;
58091;SDS011;43896;48.178;11.578;2024-02-14T05:25:03;3.75;;;1.20;;
58091;SDS011;43896;48.178;11.578;2024-02-14T05:27:29;3.47;;;1.27;;
58091;SDS011;43896;48.178;11.578;2024-02-14T05:29:55;4.28;;;1.40;;
58091;SDS011;43896;48.178;11.578;2024-02-14T05:32:20;4.25;;;1.33;;
58091;SDS011;43896;48.178;11.578;2024-02-14T05:34:46;4.32;;;1.15;;
58091;SDS011;43896;48.178;11.578;2024-02-14T05:37:11;3.70;;;1.23;;
58091;SDS011;43896;48.178;11.578;2024-02-14T05:39:36;3.83;;;1.48;;
58091;SDS011;43896;48.178;11.578;2024-02-14T05:42:02;3.92;;;1.10;;
58091;SDS011;43896;48.178;11.578;2024-02-14T05:44:27;3.40;;;1.38;;
58091;SDS011;43896;48.178;11.578;2024-02-14T05:46:55;4.95;;;1.30;;
58091;SDS011;43896;48.178;11.578;2024-02-14T05:49:21;3.80;;;1.38;;
58091;SDS011;43896;48.178;11.578;2024-02-14T05:51:46;4.15;;;1.30;;
58091;SDS011;43896;48.178;11.578;2024-02-14T05:54:12;4.20;;;1.30;;
58091;SDS011;43896;48.178;11.578;2024-02-14T05:56:37;5.00;;;1.00;;
58091;SDS011;43896;48.178;11.578;2024-02-14T05:59:02;3.38;;;1.30;;
58091;SDS011;43896;48.178;11.578;2024-02-14T06:01:28;3.72;;;1.40;;
58091;SDS011;43896;48.178;11.578;2024-02-14T06:03:53;4.28;;;1.20;;
58091;SDS011;43896;48.178;11.578;2024-02-14T06:06:19;5.30;;;1.48;;
58091;SDS011;43896;48.178;11.578;2024-02-14T06:08:44;3.20;;;1.20;;
58091;SDS011;43896;48.178;11.578;2024-02-14T06:11:10;3.83;;;1.40;;
58091;SDS011;43896;48.178;11.578;2024-02-14T06:13:35;5.50;;;1.20;;
58091;SDS011;43896;48.178;11.578;2024-02-14T06:16:01;3.95;;;1.20;;
58091;SDS011;43896;48.178;11.578;2024-02-14T06:18:26;3.15;;;1.10;;
58091;SDS011;43896;48.178;11.578;2024-02-14T06:20:52;3.65;;;1.23;;
58091;SDS011;43896;48.178;11.578;2024-02-14T06:23:17;3.72;;;1.20;;
58091;SDS011;43896;48.178;11.578;2024-02-14T06:25:43;3.38;;;0.98;;
58091;SDS011;43896;48.178;11.578;2024-02-14T06:28:08;3.60;;;0.90;;
58091;SDS011;43896;48.178;11.578;2024-02-14T06:30:34;3.22;;;1.10;;
58091;SDS011;43896;48.178;11.578;2024-02-14T06:33:00;3.70;;;1.15;;
58091;SDS011;43896;48.178;11.578;2024-02-14T06:35:27;3.95;;;1.10;;
58091;SDS011;43896;48.178;11.578;2024-02-14T06:37:53;3.40;;;0.90;;
58091;SDS011;43896;48.178;11.578;2024-02-14T06:40:19;5.55;;;1.38;;
58091;SDS011;43896;48.178;11.578;2024-02-14T06:42:45;3.42;;;1.08;;
58091;SDS011;43896;48.178;11.578;2024-02-14T06:45:10;3.72;;;1.25;;
58091;SDS011;43896;48.178;11.578;2024-02-14T06:47:36;4.35;;;1.50;;
58091;SDS011;43896;48.178;11.578;2024-02-14T06:50:02;4.72;;;1.20;;
58091;SDS011;43896;48.178;11.578;2024-02-14T06:52:28;7.97;;;1.30;;
58091;SDS011;43896;48.178;11.578;2024-02-14T06:54:53;3.92;;;1.17;;
58091;SDS011;43896;48.178;11.578;2024-02-14T06:57:19;3.67;;;1.05;;
58091;SDS011;43896;48.178;11.578;2024-02-14T06:59:44;3.97;;;1.23;;
58091;SDS011;43896;48.178;11.578;2024-02-14T07:02:10;3.45;;;1.10;;
58091;SDS011;43896;48.178;11.578;2024-02-14T07:04:35;4.40;;;1.60;;
58091;SDS011;43896;48.178;11.578;2024-02-14T07:07:02;5.95;;;1.30;;
58091;SDS011;43896;48.178;11.578;2024-02-14T07:09:27;2.20;;;0.93;;
58091;SDS011;43896;48.178;11.578;2024-02-14T07:11:54;5.13;;;1.35;;
58091;SDS011;43896;48.178;11.578;2024-02-14T07:14:21;4.68;;;1.63;;
58091;SDS011;43896;48.178;11.578;2024-02-14T07:16:47;4.30;;;1.10;;
58091;SDS011;43896;48.178;11.578;2024-02-14T07:19:12;5.15;;;1.17;;
58091;SDS011;43896;48.178;11.578;2024-02-14T07:21:40;3.80;;;1.40;;
58091;SDS011;43896;48.178;11.578;2024-02-14T07:24:06;5.82;;;1.50;;
58091;SDS011;43896;48.178;11.578;2024-02-14T07:26:31;4.30;;;1.33;;
58091;SDS011;43896;48.178;11.578;2024-02-14T07:28:56;3.75;;;0.82;;
58091;SDS011;43896;48.178;11.578;2024-02-14T07:31:22;3.05;;;1.23;;
58091;SDS011;43896;48.178;11.578;2024-02-14T07:33:47;3.55;;;1.20;;
58091;SDS011;43896;48.178;11.578;2024-02-14T07:36:13;7.00;;;1.20;;
58091;SDS011;43896;48.178;11.578;2024-02-14T07:38:39;3.97;;;1.02;;
58091;SDS011;43896;48.178;11.578;2024-02-14T07:41:04;3.88;;;1.10;;
58091;SDS011;43896;48.178;11.578;2024-02-14T07:43:30;3.67;;;1.00;;
58091;SDS011;43896;48.178;11.578;2024-02-14T07:45:55;4.00;;;1.15;;
58091;SDS011;43896;48.178;11.578;2024-02-14T07:48:21;2.42;;;1.00;;
58091;SDS011;43896;48.178;11.578;2024-02-14T07:50:47;4.35;;;1.33;;
58091;SDS011;43896;48.178;11.578;2024-02-14T07:53:13;3.30;;;1.00;;
58091;SDS011;43896;48.178;11.578;2024-02-14T07:55:38;5.80;;;1.20;;
58091;SDS011;43896;48.178;11.578;2024-02-14T07:58:05;5.90;;;1.45;;
58091;SDS011;43896;48.178;11.578;2024-02-14T08:00:30;4.53;;;1.15;;
58091;SDS011;43896;48.178;11.578;2024-02-14T08:02:55;3.45;;;0.98;;
58091;SDS011;43896;48.178;11.578;2024-02-14T08:05:21;4.50;;;1.40;;
58091;SDS011;43896;48.178;11.578;2024-02-14T08:07:46;4.15;;;1.23;;
58091;SDS011;43896;48.178;11.578;2024-02-14T08:10:12;4.35;;;1.45;;
58091;SDS011;43896;48.178;11.578;2024-02-14T08:12:37;5.68;;;1.20;;
58091;SDS011;43896;48.178;11.578;2024-02-14T08:15:03;4.05;;;1.38;;
58091;SDS011;43896;48.178;11.578;2024-02-14T08:17:29;4.35;;;1.23;;
58091;SDS011;43896;48.178;11.578;2024-02-14T08:19:55;6.85;;;2.33;;
58091;SDS011;43896;48.178;11.578;2024-02-14T08:22:20;6.28;;;1.30;;
58091;SDS011;43896;48.178;11.578;2024-02-14T08:24:46;4.25;;;1.20;;
58091;SDS011;43896;48.178;11.578;2024-02-14T08:27:11;3.40;;;1.15;;
58091;SDS011;43896;48.178;11.578;2024-02-14T08:29:36;5.03;;;1.27;;
58091;SDS011;43896;48.178;11.578;2024-02-14T08:32:02;3.83;;;1.10;;
58091;SDS011;43896;48.178;11.578;2024-02-14T08:34:28;4.75;;;1.20;;
58091;SDS011;43896;48.178;11.578;2024-02-14T08:36:54;4.32;;;1.48;;
58091;SDS011;43896;48.178;11.578;2024-02-14T08:39:20;2.97;;;0.90;;
58091;SDS011;43896;48.178;11.578;2024-02-14T08:41:45;3.58;;;1.10;;
58091;SDS011;43896;48.178;11.578;2024-02-14T08:44:12;4.57;;;1.30;;
58091;SDS011;43896;48.178;11.578;2024-02-14T08:46:38;5.38;;;1.20;;
58091;SDS011;43896;48.178;11.578;2024-02-14T08:49:04;4.10;;;1.45;;
58091;SDS011;43896;48.178;11.578;2024-02-14T08:51:33;4.00;;;1.38;;
58091;SDS011;43896;48.178;11.578;2024-02-14T08:54:02;4.53;;;1.70;;
58091;SDS011;43896;48.178;11.578;2024-02-14T08:56:30;3.95;;;1.40;;
58091;SDS011;43896;48.178;11.578;2024-02-14T08:58:58;4.43;;;1.52;;
58091;SDS011;43896;48.178;11.578;2024-02-14T09:01:27;4.43;;;1.30;;
58091;SDS011;43896;48.178;11.578;2024-02-14T09:03:53;3.95;;;1.30;;
58091;SDS011;43896;48.178;11.578;2024-02-14T09:06:19;3.40;;;1.27;;
58091;SDS011;43896;48.178;11.578;2024-02-14T09:08:44;4.35;;;1.13;;
58091;SDS011;43896;48.178;11.578;2024-02-14T09:11:09;2.83;;;1.10;;
58091;SDS011;43896;48.178;11.578;2024-02-14T09:13:35;3.70;;;1.10;;
58091;SDS011;43896;48.178;11.578;2024-02-14T09:16:00;4.60;;;1.20;;
58091;SDS011;43896;48.178;11.578;2024-02-14T09:18:26;4.80;;;1.35;;
58091;SDS011;43896;48.178;11.578;2024-02-14T09:20:52;3.25;;;1.10;;
58091;SDS011;43896;48.178;11.578;2024-02-14T09:23:17;4.97;;;1.08;;
58091;SDS011;43896;48.178;11.578;2024-02-14T09:25:47;3.30;;;0.93;;
58091;SDS011;43896;48.178;11.578;2024-02-14T09:28:15;4.03;;;1.10;;
58091;SDS011;43896;48.178;11.578;2024-02-14T09:30:41;3.50;;;1.13;;
58091;SDS011;43896;48.178;11.578;2024-02-14T09:33:06;3.60;;;0.90;;
58091;SDS011;43896;48.178;11.578;2024-02-14T09:35:32;3.75;;;1.10;;
58091;SDS011;43896;48.178;11.578;2024-02-14T09:37:57;3.20;;;1.00;;
58091;SDS011;43896;48.178;11.578;2024-02-14T09:40:22;5.00;;;1.00;;
58091;SDS011;43896;48.178;11.578;2024-02-14T09:42:54;3.38;;;1.02;;
58091;SDS011;43896;48.178;11.578;2024-02-14T09:45:26;3.50;;;1.08;;
58091;SDS011;43896;48.178;11.578;2024-02-14T09:47:52;3.58;;;0.90;;
58091;SDS011;43896;48.178;11.578;2024-02-14T09:50:19;4.30;;;1.02;;
58091;SDS011;43896;48.178;11.578;2024-02-14T09:52:46;2.75;;;0.80;;
58091;SDS011;43896;48.178;11.578;2024-02-14T09:55:14;2.08;;;0.60;;
58091;SDS011;43896;48.178;11.578;2024-02-14T09:57:40;2.25;;;0.80;;
58091;SDS011;43896;48.178;11.578;2024-02-14T10:00:09;3.22;;;0.90;;
58091;SDS011;43896;48.178;11.578;2024-02-14T10:02:40;3.78;;;0.80;;
58091;SDS011;43896;48.178;11.578;2024-02-14T10:05:05;2.38;;;0.80;;
58091;SDS011;43896;48.178;11.578;2024-02-14T10:07:39;2.13;;;0.70;;
58091;SDS011;43896;48.178;11.578;2024-02-14T10:10:08;2.17;;;0.82;;
58091;SDS011;43896;48.178;11.578;2024-02-14T10:12:35;2.55;;;0.70;;
58091;SDS011;43896;48.178;11.578;2024-02-14T10:15:00;2.05;;;0.75;;
58091;SDS011;43896;48.178;11.578;2024-02-14T10:17:27;2.25;;;0.70;;
58091;SDS011;43896;48.178;11.578;2024-02-14T10:19:56;2.05;;;0.70;;
58091;SDS011;43896;48.178;11.578;2024-02-14T10:22:32;3.00;;;0.80;;
58091;SDS011;43896;48.178;11.578;2024-02-14T10:25:01;1.98;;;0.80;;
58091;SDS011;43896;48.178;11.578;2024-02-14T10:27:29;1.67;;;0.60;;
58091;SDS011;43896;48.178;11.578;2024-02-14T10:29:56;2.95;;;0.70;;
58091;SDS011;43896;48.178;11.578;2024-02-14T10:32:22;3.42;;;0.90;;
58091;SDS011;43896;48.178;11.578;2024-02-14T10:34:49;2.55;;;0.60;;
58091;SDS011;43896;48.178;11.578;2024-02-14T10:37:15;2.08;;;0.82;;
58091;SDS011;43896;48.178;11.578;2024-02-14T10:39:43;2.40;;;0.70;;
58091;SDS011;43896;48.178;11.578;2024-02-14T10:42:11;1.98;;;0.70;;
58091;SDS011;43896;48.178;11.578;2024-02-14T10:44:37;1.98;;;0.60;;
58091;SDS011;43896;48.178;11.578;2024-02-14T10:47:03;4.60;;;0.70;;
58091;SDS011;43896;48.178;11.578;2024-02-14T10:49:32;3.75;;;0.65;;
58091;SDS011;43896;48.178;11.578;2024-02-14T10:51:59;1.40;;;0.60;;
58091;SDS011;43896;48.178;11.578;2024-02-14T10:54:32;2.25;;;0.60;;
58091;SDS011;43896;48.178;11.578;2024-02-14T10:57:00;3.30;;;0.80;;
58091;SDS011;43896;48.178;11.578;2024-02-14T10:59:32;3.13;;;0.60;;
58091;SDS011;43896;48.178;11.578;2024-02-14T11:01:59;2.92;;;0.68;;
58091;SDS011;43896;48.178;11.578;2024-02-14T11:04:25;3.67;;;0.75;;
58091;SDS011;43896;48.178;11.578;2024-02-14T11:06:53;2.30;;;0.50;;
58091;SDS011;43896;48.178;11.578;2024-02-14T11:09:33;2.28;;;0.80;;
58091;SDS011;43896;48.178;11.578;2024-02-14T11:12:00;2.58;;;0.80;;
58091;SDS011;43896;48.178;11.578;2024-02-14T11:14:29;2.40;;;0.80;;
58091;SDS011;43896;48.178;11.578;2024-02-14T11:16:58;2.72;;;0.50;;
58091;SDS011;43896;48.178;11.578;2024-02-14T11:19:30;2.58;;;0.52;;
58091;SDS011;43896;48.178;11.578;2024-02-14T11:21:58;2.67;;;0.68;;
58091;SDS011;43896;48.178;11.578;2024-02-14T11:24:27;1.98;;;0.50;;
58091;SDS011;43896;48.178;11.578;2024-02-14T11:26:54;4.47;;;0.80;;
58091;SDS011;43896;48.178;11.578;2024-02-14T11:29:21;3.20;;;0.60;;
58091;SDS011;43896;48.178;11.578;2024-02-14T11:32:00;1.90;;;0.70;;
58091;SDS011;43896;48.178;11.578;2024-02-14T11:34:27;2.55;;;0.60;;
58091;SDS011;43896;48.178;11.578;2024-02-14T11:36:53;1.98;;;0.60;;
58091;SDS011;43896;48.178;11.578;2024-02-14T11:39:18;2.20;;;0.60;;
58091;SDS011;43896;48.178;11.578;2024-02-14T11:41:45;2.35;;;0.63;;
58091;SDS011;43896;48.178;11.578;2024-02-14T11:44:11;2.72;;;0.70;;
58091;SDS011;43896;48.178;11.578;2024-02-14T11:46:37;1.55;;;0.60;;
58091;SDS011;43896;48.178;11.578;2024-02-14T11:49:03;2.80;;;0.60;;
58091;SDS011;43896;48.178;11.578;2024-02-14T11:51:30;1.35;;;0.50;;
58091;SDS011;43896;48.178;11.578;2024-02-14T11:54:00;3.47;;;0.52;;
58091;SDS011;43896;48.178;11.578;2024-02-14T11:56:33;1.38;;;0.40;;
58091;SDS011;43896;48.178;11.578;2024-02-14T11:59:00;3.03;;;0.57;;
58091;SDS011;43896;48.178;11.578;2024-02-14T12:01:30;1.90;;;0.55;;
58091;SDS011;43896;48.178;11.578;2024-02-14T12:04:00;2.53;;;0.60;;
58091;SDS011;43896;48.178;11.578;2024-02-14T12:06:27;1.48;;;0.57;;
58091;SDS011;43896;48.178;11.578;2024-02-14T12:08:54;1.35;;;0.55;;
58091;SDS011;43896;48.178;11.578;2024-02-14T12:11:20;1.27;;;0.50;;
58091;SDS011;43896;48.178;11.578;2024-02-14T12:13:54;1.05;;;0.40;;
58091;SDS011;43896;48.178;11.578;2024-02-14T12:16:20;1.63;;;0.50;;
58091;SDS011;43896;48.178;11.578;2024-02-14T12:18:46;2.55;;;0.52;;
58091;SDS011;43896;48.178;11.578;2024-02-14T12:21:11;0.88;;;0.40;;
58091;SDS011;43896;48.178;11.578;2024-02-14T12:23:37;1.90;;;0.50;;
58091;SDS011;43896;48.178;11.578;2024-02-14T12:26:03;1.80;;;0.55;;
58091;SDS011;43896;48.178;11.578;2024-02-14T12:28:30;2.97;;;0.47;;
58091;SDS011;43896;48.178;11.578;2024-02-14T12:30:56;1.27;;;0.45;;
58091;SDS011;43896;48.178;11.578;2024-02-14T12:33:26;1.55;;;0.50;;
58091;SDS011;43896;48.178;11.578;2024-02-14T12:35:55;2.38;;;0.60;;
58091;SDS011;43896;48.178;11.578;2024-02-14T12:38:22;1.33;;;0.50;;
58091;SDS011;43896;48.178;11.578;2024-02-14T12:40:48;1.00;;;0.40;;
58091;SDS011;43896;48.178;11.578;2024-02-14T12:43:14;1.50;;;0.50;;
58091;SDS011;43896;48.178;11.578;2024-02-14T12:45:41;1.05;;;0.30;;
58091;SDS011;43896;48.178;11.578;2024-02-14T12:48:07;1.85;;;0.40;;
58091;SDS011;43896;48.178;11.578;2024-02-14T12:50:33;2.40;;;0.40;;
58091;SDS011;43896;48.178;11.578;2024-02-14T12:53:00;1.65;;;0.50;;
58091;SDS011;43896;48.178;11.578;2024-02-14T12:55:27;1.75;;;0.50;;
58091;SDS011;43896;48.178;11.578;2024-02-14T12:57:53;3.00;;;0.50;;
58091;SDS011;43896;48.178;11.578;2024-02-14T13:00:20;3.58;;;0.52;;
58091;SDS011;43896;48.178;11.578;2024-02-14T13:02:46;1.73;;;0.50;;
58091;SDS011;43896;48.178;11.578;2024-02-14T13:05:13;2.92;;;0.50;;
58091;SDS011;43896;48.178;11.578;2024-02-14T13:07:38;2.42;;;0.47;;
58091;SDS011;43896;48.178;11.578;2024-02-14T13:10:04;2.40;;;0.50;;
58091;SDS011;43896;48.178;11.578;2024-02-14T13:12:30;1.88;;;0.52;;
58091;SDS011;43896;48.178;11.578;2024-02-14T13:14:55;2.97;;;0.52;;
58091;SDS011;43896;48.178;11.578;2024-02-14T13:17:20;1.83;;;0.60;;
58091;SDS011;43896;48.178;11.578;2024-02-14T13:19:46;2.33;;;0.52;;
58091;SDS011;43896;48.178;11.578;2024-02-14T13:22:14;2.67;;;0.70;;
58091;SDS011;43896;48.178;11.578;2024-02-14T13:24:40;1.73;;;0.43;;
58091;SDS011;43896;48.178;11.578;2024-02-14T13:27:05;1.98;;;0.50;;
58091;SDS011;43896;48.178;11.578;2024-02-14T13:29:31;2.00;;;0.63;;
58091;SDS011;43896;48.178;11.578;2024-02-14T13:31:56;1.48;;;0.57;;
58091;SDS011;43896;48.178;11.578;2024-02-14T13:34:21;2.45;;;0.65;;
58091;SDS011;43896;48.178;11.578;2024-02-14T13:36:47;2.20;;;0.50;;
58091;SDS011;43896;48.178;11.578;2024-02-14T13:39:13;0.90;;;0.40;;
58091;SDS011;43896;48.178;11.578;2024-02-14T13:41:39;1.58;;;0.50;;
58091;SDS011;43896;48.178;11.578;2024-02-14T13:44:08;2.30;;;0.57;;
58091;SDS011;43896;48.178;11.578;2024-02-14T13:46:33;1.92;;;0.60;;
58091;SDS011;43896;48.178;11.578;2024-02-14T13:48:59;1.58;;;0.50;;
58091;SDS011;43896;48.178;11.578;2024-02-14T13:51:25;1.70;;;0.50;;
58091;SDS011;43896;48.178;11.578;2024-02-14T13:53:52;1.95;;;0.60;;
58091;SDS011;43896;48.178;11.578;2024-02-14T13:56:17;3.60;;;0.50;;
58091;SDS011;43896;48.178;11.578;2024-02-14T13:58:43;1.27;;;0.50;;
58091;SDS011;43896;48.178;11.578;2024-02-14T14:01:09;1.40;;;0.50;;
58091;SDS011;43896;48.178;11.578;2024-02-14T14:03:35;1.55;;;0.52;;
58091;SDS011;43896;48.178;11.578;2024-02-14T14:06:02;2.20;;;0.57;;
58091;SDS011;43896;48.178;11.578;2024-02-14T14:08:30;2.13;;;0.50;;
58091;SDS011;43896;48.178;11.578;2024-02-14T14:10:55;2.05;;;0.50;;
58091;SDS011;43896;48.178;11.578;2024-02-14T14:13:21;2.15;;;0.50;;
58091;SDS011;43896;48.178;11.578;2024-02-14T14:15:46;1.95;;;0.43;;
58091;SDS011;43896;48.178;11.578;2024-02-14T14:18:12;2.38;;;0.68;;
58091;SDS011;43896;48.178;11.578;2024-02-14T14:20:37;1.85;;;0.50;;
58091;SDS011;43896;48.178;11.578;2024-02-14T14:23:02;1.90;;;0.50;;
58091;SDS011;43896;48.178;11.578;2024-02-14T14:25:28;2.65;;;0.68;;
58091;SDS011;43896;48.178;11.578;2024-02-14T14:27:55;1.90;;;0.60;;
58091;SDS011;43896;48.178;11.578;2024-02-14T14:30:22;1.67;;;0.70;;